Time;durP1;ratioP1;P1;durP2;ratioP2;P2;SDS_P1;SDS_P2;PMS_P1;PMS_P2;Temp;Humidity;BMP_temperature;BMP_pressure;BME280_temperature;BME280_humidity;BME280_pressure;Samples;Min_cycle;Max_cycle;Signal;HPM_P1;HPM_P2
2022/06/01 00:00:08;;;;;;;20.90;18.90;;;;;;;13.07;98.50;98637.65;105231;1268;61160;-75
2022/06/01 00:02:58;;;;;;;18.60;16.60;;;;;;;13.08;99.17;98639.49;105031;1268;77521;-74
2022/06/01 00:05:26;;;;;;;19.80;17.90;;;;;;;13.11;99.50;98638.02;105202;1268;70412;-74
2022/06/01 00:07:52;;;;;;;21.90;19.80;;;;;;;13.13;99.83;98637.11;105205;1268;73483;-76
2022/06/01 00:10:19;;;;;;;22.10;19.70;;;;;;;13.15;99.81;98634.63;105171;1269;61172;-74
2022/06/01 00:12:46;;;;;;;22.00;19.60;;;;;;;13.15;99.76;98628.02;105191;1268;61207;-74
2022/06/01 00:15:15;;;;;;;23.40;20.30;;;;;;;13.16;99.94;98629.92;105242;1268;75125;-74
2022/06/01 00:17:42;;;;;;;21.80;19.50;;;;;;;13.16;100.00;98628.14;105207;1268;69195;-75
2022/06/01 00:20:10;;;;;;;19.30;17.00;;;;;;;13.17;100.00;98625.05;105235;1268;73722;-77
2022/06/01 00:22:36;;;;;;;21.40;18.60;;;;;;;13.16;100.00;98622.44;105208;1268;61369;-73
2022/06/01 00:25:06;;;;;;;22.70;20.30;;;;;;;13.15;100.00;98628.02;105189;1268;61426;-72
2022/06/01 00:27:33;;;;;;;21.30;18.40;;;;;;;13.16;100.00;98629.77;105472;1268;75477;-74
2022/06/01 00:30:00;;;;;;;19.50;16.60;;;;;;;13.15;100.00;98630.94;105196;1268;68562;-73
2022/06/01 00:32:26;;;;;;;19.30;17.20;;;;;;;13.14;100.00;98629.89;105231;1268;72408;-75
2022/06/01 00:34:53;;;;;;;19.10;17.00;;;;;;;13.12;100.00;98628.66;105218;1266;61399;-76
2022/06/01 00:37:20;;;;;;;19.20;17.20;;;;;;;13.10;100.00;98631.00;105207;1268;61314;-74
2022/06/01 00:39:47;;;;;;;18.40;16.60;;;;;;;13.07;100.00;98627.12;105227;1268;75428;-77
2022/06/01 00:42:19;;;;;;;19.40;17.30;;;;;;;13.02;100.00;98625.94;105019;1268;69213;-75
2022/06/01 00:44:47;;;;;;;21.20;19.00;;;;;;;13.00;100.00;98627.36;105023;1268;453548;-75
2022/06/01 00:47:16;;;;;;;21.10;19.00;;;;;;;13.01;100.00;98627.06;105252;1268;61268;-74
2022/06/01 00:49:48;;;;;;;24.20;21.80;;;;;;;13.02;100.00;98630.26;105268;1268;61358;-75
2022/06/01 00:52:15;;;;;;;26.60;23.20;;;;;;;13.01;100.00;98628.67;105219;1268;75234;-74
2022/06/01 00:54:42;;;;;;;25.00;22.50;;;;;;;13.02;100.00;98630.40;105222;1268;69317;-74
2022/06/01 00:57:13;;;;;;;24.90;22.50;;;;;;;13.03;100.00;98634.80;105176;1268;74248;-77
2022/06/01 00:59:44;;;;;;;24.20;20.80;;;;;;;13.03;100.00;98639.73;105244;1268;61540;-74
2022/06/01 01:02:11;;;;;;;23.60;20.20;;;;;;;13.03;100.00;98640.84;105207;1268;61282;-74
2022/06/01 01:04:39;;;;;;;21.90;19.70;;;;;;;13.01;100.00;98645.52;105209;1268;75224;-75
2022/06/01 01:07:12;;;;;;;22.60;20.20;;;;;;;13.00;100.00;98644.33;105212;1268;70791;-74
2022/06/01 01:09:39;;;;;;;22.50;20.20;;;;;;;13.00;100.00;98647.33;105246;1268;73906;-77
2022/06/01 01:12:08;;;;;;;22.80;20.40;;;;;;;13.00;100.00;98650.36;105252;1268;61224;-77
2022/06/01 01:14:40;;;;;;;24.20;21.70;;;;;;;13.00;100.00;98655.50;105460;1268;62012;-78
2022/06/01 01:17:07;;;;;;;24.00;21.30;;;;;;;13.03;100.00;98651.37;105243;1268;75518;-74
2022/06/01 01:19:52;;;;;;;30.80;27.50;;;;;;;13.05;100.00;98651.56;105040;1268;70367;-75
2022/06/01 01:22:43;;;;;;;36.00;27.40;;;;;;;13.06;100.00;98652.17;105276;1268;73129;-74
2022/06/01 01:25:18;;;;;;;29.90;26.80;;;;;;;13.06;100.00;98646.63;105210;1268;61416;-74
2022/06/01 01:27:47;;;;;;;29.60;26.60;;;;;;;13.06;100.00;98647.02;105218;1268;61844;-75
2022/06/01 01:30:40;;;;;;;30.80;27.80;;;;;;;13.06;100.00;98647.02;105298;1268;76512;-76
2022/06/01 01:33:33;;;;;;;29.10;26.10;;;;;;;13.06;100.00;98649.34;105259;1268;68999;-74
2022/06/01 01:36:08;;;;;;;28.90;26.00;;;;;;;13.06;100.00;98644.89;104887;1274;72100;-73
2022/06/01 01:38:54;;;;;;;30.50;27.40;;;;;;;13.07;100.00;98652.46;105024;1274;61361;-76
2022/06/01 01:41:32;;;;;;;31.00;27.90;;;;;;;13.06;100.00;98654.65;104858;1274;61336;-76
2022/06/01 01:44:25;;;;;;;33.50;30.00;;;;;;;13.04;100.00;98654.46;104884;1274;75291;-75
2022/06/01 01:46:53;;;;;;;31.30;28.00;;;;;;;13.04;100.00;98654.13;104862;1274;68153;-76
2022/06/01 01:49:26;;;;;;;29.50;26.60;;;;;;;13.05;100.00;98660.80;104916;1274;73232;-74
2022/06/01 01:51:55;;;;;;;39.60;35.20;;;;;;;13.02;100.00;98691.36;104870;1274;61348;-76
2022/06/01 01:54:37;;;;;;;28.80;25.90;;;;;;;13.01;100.00;98686.34;104810;1275;61466;-75
2022/06/01 01:57:43;;;;;;;24.70;22.10;;;;;;;13.05;100.00;98685.79;104860;1274;76646;-75
2022/06/01 02:00:36;;;;;;;24.70;22.20;;;;;;;13.12;100.00;98689.52;104423;1280;70637;-74
2022/06/01 02:03:21;;;;;;;27.70;24.90;;;;;;;13.17;100.00;98688.55;104596;1281;73235;-75
2022/06/01 02:06:06;;;;;;;27.10;24.40;;;;;;;13.20;100.00;98685.67;104351;1281;61317;-73
2022/06/01 02:08:49;;;;;;;28.30;25.40;;;;;;;13.20;100.00;98687.23;103984;1284;61304;-77
2022/06/01 02:14:40;;;;;;;26.30;23.60;;;;;;;13.18;100.00;98684.69;104565;1276;70111;-77
2022/06/01 02:17:12;;;;;;;23.30;20.90;;;;;;;13.14;100.00;98684.49;104884;1277;73024;-76
2022/06/01 02:19:42;;;;;;;24.20;21.60;;;;;;;13.12;100.00;98679.68;104779;1277;61228;-76
2022/06/01 02:22:13;;;;;;;25.20;21.90;;;;;;;13.11;100.00;98681.20;104814;1277;61359;-74
2022/06/01 02:24:41;;;;;;;22.30;19.70;;;;;;;13.10;100.00;98684.85;104841;1277;76471;-76
2022/06/01 02:27:09;;;;;;;22.00;19.80;;;;;;;13.09;100.00;98683.33;104827;1277;69421;-76
2022/06/01 02:29:39;;;;;;;20.10;17.90;;;;;;;13.08;100.00;98683.41;104841;1277;73200;-74
2022/06/01 02:32:07;;;;;;;23.70;19.40;;;;;;;13.10;100.00;98681.13;104800;1275;61332;-72
2022/06/01 02:34:35;;;;;;;22.40;20.10;;;;;;;13.11;100.00;98679.97;104864;1277;61254;-76
2022/06/01 02:37:05;;;;;;;20.10;18.10;;;;;;;13.12;100.00;98678.98;104895;1268;75108;-74
2022/06/01 02:39:33;;;;;;;;;;;;;;;13.15;100.00;98683.94;105228;1268;70140;-74
2022/06/01 02:42:28;;;;;;;19.10;17.20;;;;;;;13.15;100.00;98693.66;105286;1268;72410;-75
2022/06/01 02:45:08;;;;;;;20.80;17.40;;;;;;;13.17;100.00;98694.11;105209;1268;61270;-76
2022/06/01 02:47:38;;;;;;;18.70;16.90;;;;;;;13.18;100.00;98699.31;105223;1268;61242;-74
2022/06/01 02:50:07;;;;;;;17.40;15.60;;;;;;;13.20;100.00;98704.23;105253;1268;76456;-76
2022/06/01 02:52:34;;;;;;;18.30;16.10;;;;;;;13.21;100.00;98710.69;105286;1268;69387;-76
2022/06/01 02:55:05;;;;;;;16.90;15.20;;;;;;;13.22;100.00;98711.85;105258;1268;73559;-74
2022/06/01 02:57:33;;;;;;;17.00;15.30;;;;;;;13.24;100.00;98714.77;105196;1268;61300;-76
2022/06/01 03:00:00;;;;;;;16.20;14.00;;;;;;;13.25;100.00;98718.09;105263;1268;61953;-76
2022/06/01 03:02:27;;;;;;;14.90;13.30;;;;;;;13.26;100.00;98724.91;105255;1268;74449;-74
2022/06/01 03:04:53;;;;;;;15.30;13.30;;;;;;;13.29;100.00;98738.08;105218;1268;61317;-73
2022/06/01 03:07:20;;;;;;;15.40;12.70;;;;;;;13.31;100.00;98732.71;105233;1268;61382;-74
2022/06/01 03:09:46;;;;;;;14.00;12.30;;;;;;;13.32;100.00;98730.73;105058;1271;61400;-74
2022/06/01 03:12:13;;;;;;;13.30;11.90;;;;;;;13.32;100.00;98726.05;105195;1268;61339;-74
2022/06/01 03:14:39;;;;;;;13.70;11.70;;;;;;;13.32;100.00;98722.11;105195;1270;61278;-74
2022/06/01 03:17:06;;;;;;;14.00;12.30;;;;;;;13.33;100.00;98718.14;105213;1268;68735;-75
2022/06/01 03:19:33;;;;;;;14.40;13.00;;;;;;;13.34;100.00;98717.19;105190;1268;73309;-74
2022/06/01 03:22:01;;;;;;;14.60;13.10;;;;;;;13.34;100.00;98721.63;105245;1268;61408;-74
2022/06/01 03:24:27;;;;;;;16.00;14.20;;;;;;;13.32;100.00;98724.63;105240;1268;61869;-75
2022/06/01 03:26:55;;;;;;;18.00;15.10;;;;;;;13.29;100.00;98715.43;105391;1268;76445;-75
2022/06/01 03:29:23;;;;;;;17.50;15.80;;;;;;;13.28;100.00;98715.50;105485;1268;69477;-75
2022/06/01 03:31:50;;;;;;;16.10;14.40;;;;;;;13.29;100.00;98723.14;105582;1268;74544;-74
2022/06/01 03:34:18;;;;;;;15.10;13.80;;;;;;;13.29;100.00;98723.84;105218;1268;61387;-75
2022/06/01 03:36:44;;;;;;;17.60;15.10;;;;;;;13.27;100.00;98731.98;105330;1268;61188;-75
2022/06/01 03:39:11;;;;;;;16.80;15.10;;;;;;;13.27;100.00;98735.25;105253;1268;61384;-76
2022/06/01 03:41:37;;;;;;;15.50;13.90;;;;;;;13.28;100.00;98740.10;105116;1271;61383;-74
2022/06/01 03:46:52;;;;;;;13.20;11.90;;;;;;;13.40;100.00;98745.75;105204;1268;61111;-75
2022/06/01 03:49:19;;;;;;;13.60;12.10;;;;;;;13.46;100.00;98745.11;105196;1268;61350;-73
2022/06/01 03:51:46;;;;;;;11.90;10.90;;;;;;;13.50;100.00;98734.02;105209;1268;76190;-76
2022/06/01 03:54:12;;;;;;;12.40;11.10;;;;;;;13.57;100.00;98731.82;105223;1268;61354;-75
2022/06/01 03:56:39;;;;;;;11.00;9.90;;;;;;;13.65;100.00;98731.93;105213;1268;61383;-75
2022/06/01 03:59:05;;;;;;;10.80;9.70;;;;;;;13.70;100.00;98734.52;105035;1268;61304;-75
2022/06/01 04:01:32;;;;;;;10.80;9.70;;;;;;;13.72;100.00;98730.23;105192;1268;61223;-76
2022/06/01 04:03:58;;;;;;;12.60;9.90;;;;;;;13.73;100.00;98729.80;105226;1268;61301;-76
2022/06/01 04:06:25;;;;;;;10.20;9.20;;;;;;;13.72;100.00;98733.45;105215;1268;61390;-74
2022/06/01 04:08:51;;;;;;;11.80;9.90;;;;;;;13.72;100.00;98747.70;105232;1268;61307;-74
2022/06/01 04:11:18;;;;;;;11.30;9.90;;;;;;;13.73;100.00;98758.66;105178;1268;61390;-76
2022/06/01 04:13:44;;;;;;;10.00;9.00;;;;;;;13.74;100.00;98746.46;105222;1268;61348;-76
2022/06/01 04:16:11;;;;;;;11.20;10.00;;;;;;;13.73;100.00;98732.42;105232;1268;61313;-74
2022/06/01 04:18:38;;;;;;;9.90;9.00;;;;;;;13.74;100.00;98722.59;105242;1268;69424;-74
2022/06/01 04:21:04;;;;;;;9.90;9.00;;;;;;;13.73;100.00;98717.52;105221;1268;61430;-74
2022/06/01 04:23:31;;;;;;;10.40;9.50;;;;;;;13.70;100.00;98716.48;105228;1268;61332;-75
2022/06/01 04:25:57;;;;;;;10.70;9.60;;;;;;;13.71;100.00;98727.65;105219;1268;61313;-74
2022/06/01 04:28:24;;;;;;;10.10;9.00;;;;;;;13.75;100.00;98724.61;105196;1268;61386;-74
2022/06/01 04:30:50;;;;;;;9.90;9.00;;;;;;;13.80;100.00;98719.02;105023;1268;69273;-75
2022/06/01 04:33:18;;;;;;;11.00;9.10;;;;;;;13.86;100.00;98721.05;105197;1268;74669;-74
2022/06/01 04:35:44;;;;;;;10.40;9.40;;;;;;;13.89;100.00;98728.77;105271;1268;61280;-74
2022/06/01 04:38:14;;;;;;;9.90;9.00;;;;;;;13.90;100.00;98725.31;105221;1268;61262;-75
2022/06/01 04:40:47;;;;;;;10.70;9.60;;;;;;;13.91;100.00;98722.39;105243;1268;75126;-74
2022/06/01 04:43:17;;;;;;;11.60;10.40;;;;;;;13.93;100.00;98734.70;105280;1268;69166;-74
2022/06/01 04:45:44;;;;;;;;;;;;;;;13.97;100.00;98730.98;105120;1272;74301;-74
2022/06/01 04:48:11;;;;;;;11.70;9.90;;;;;;;14.01;100.00;98720.25;105237;1268;61324;-74
2022/06/01 04:50:44;;;;;;;10.90;9.80;;;;;;;14.09;100.00;98725.66;105251;1268;61312;-76
2022/06/01 04:53:15;;;;;;;10.20;9.10;;;;;;;14.14;100.00;98734.55;105251;1268;76187;-76
2022/06/01 04:55:44;;;;;;;10.70;9.70;;;;;;;14.13;100.00;98746.44;105224;1268;69351;-75
2022/06/01 04:58:11;;;;;;;11.00;9.20;;;;;;;14.09;100.00;98749.46;105217;1268;73422;-75
2022/06/01 05:00:39;;;;;;;10.10;8.90;;;;;;;14.05;100.00;98745.80;105255;1268;61258;-73
2022/06/01 05:03:06;;;;;;;11.50;9.80;;;;;;;14.02;100.00;98746.04;105262;1268;61160;-76
2022/06/01 05:05:39;;;;;;;10.70;9.70;;;;;;;14.02;100.00;98747.89;105257;1268;76136;-77
2022/06/01 05:08:10;;;;;;;10.30;9.40;;;;;;;14.02;100.00;98743.58;105245;1268;68459;-75
2022/06/01 05:10:37;;;;;;;11.20;9.30;;;;;;;14.03;100.00;98735.43;105201;1268;73526;-76
2022/06/01 05:13:04;;;;;;;10.70;9.70;;;;;;;14.09;100.00;98729.99;105188;1268;61188;-77
2022/06/01 05:15:31;;;;;;;12.10;11.00;;;;;;;14.17;100.00;98726.40;105234;1268;61272;-76
2022/06/01 05:17:57;;;;;;;11.20;10.20;;;;;;;14.25;100.00;98728.89;105011;1268;61310;-74
2022/06/01 05:20:24;;;;;;;10.40;9.40;;;;;;;14.36;100.00;98735.71;105236;1268;61407;-76
2022/06/01 05:22:50;;;;;;;10.60;9.60;;;;;;;14.42;100.00;98737.95;105044;1268;61312;-75
2022/06/01 05:25:17;;;;;;;10.30;9.40;;;;;;;14.48;100.00;98744.11;105234;1268;61189;-75
2022/06/01 05:27:43;;;;;;;9.50;8.70;;;;;;;14.49;100.00;98739.14;105207;1268;61273;-76
2022/06/01 05:30:11;;;;;;;10.80;9.80;;;;;;;14.52;100.00;98739.30;104980;1268;74662;-74
2022/06/01 05:32:37;;;;;;;10.00;9.00;;;;;;;14.54;100.00;98735.77;105054;1268;69727;-73
2022/06/01 05:35:05;;;;;;;10.30;9.20;;;;;;;14.56;100.00;98726.32;105202;1268;74773;-74
2022/06/01 05:37:31;;;;;;;9.90;8.90;;;;;;;14.60;100.00;98718.09;105246;1267;61290;-74
2022/06/01 05:39:58;;;;;;;10.10;9.20;;;;;;;14.67;100.00;98709.17;105196;1268;61397;-77
2022/06/01 05:42:24;;;;;;;9.90;9.00;;;;;;;14.76;100.00;98717.70;105200;1268;61316;-77
2022/06/01 05:44:52;;;;;;;10.10;9.20;;;;;;;14.84;100.00;98725.25;105207;1268;61303;-77
2022/06/01 05:47:19;;;;;;;9.50;8.60;;;;;;;14.91;100.00;98734.82;105225;1268;72292;-76
2022/06/01 05:49:49;;;;;;;10.10;9.10;;;;;;;14.96;100.00;98730.23;105183;1268;61420;-76
2022/06/01 05:52:18;;;;;;;10.80;9.50;;;;;;;15.00;100.00;98735.45;105225;1268;61966;-73
2022/06/01 05:54:46;;;;;;;9.70;8.40;;;;;;;15.03;100.00;98736.95;105168;1271;75714;-76
2022/06/01 05:57:14;;;;;;;9.10;8.40;;;;;;;15.08;100.00;98740.28;105382;1268;69439;-76
2022/06/01 05:59:41;;;;;;;10.00;9.10;;;;;;;15.15;100.00;98744.13;105247;1268;74518;-75
2022/06/01 06:02:08;;;;;;;9.30;8.50;;;;;;;15.26;100.00;98741.48;105231;1268;61298;-76
2022/06/01 06:04:34;;;;;;;8.90;8.00;;;;;;;15.36;100.00;98746.67;105229;1268;62062;-75
2022/06/01 06:07:01;;;;;;;8.50;7.70;;;;;;;15.41;100.00;98743.54;105195;1268;75069;-74
2022/06/01 06:09:28;;;;;;;7.90;7.30;;;;;;;15.41;100.00;98743.73;105029;1271;67502;-74
2022/06/01 06:11:55;;;;;;;9.10;8.20;;;;;;;15.39;100.00;98740.34;105229;1265;61323;-74
2022/06/01 06:14:21;;;;;;;8.50;7.30;;;;;;;15.34;100.00;98742.92;105242;1268;61390;-74
2022/06/01 06:16:48;;;;;;;9.30;8.30;;;;;;;15.27;100.00;98743.73;105189;1268;61772;-78
2022/06/01 06:19:18;;;;;;;9.30;8.40;;;;;;;15.23;100.00;98741.02;105181;1271;76526;-74
2022/06/01 06:21:45;;;;;;;7.90;7.30;;;;;;;15.15;100.00;98736.44;105407;1268;70436;-76
2022/06/01 06:24:14;;;;;;;8.30;7.60;;;;;;;15.08;100.00;98728.65;105267;1268;74149;-74
2022/06/01 06:26:42;;;;;;;9.70;8.30;;;;;;;15.06;100.00;98733.08;105308;1268;61484;-75
2022/06/01 06:29:11;;;;;;;7.20;6.50;;;;;;;15.06;100.00;98748.88;105189;1269;61439;-73
2022/06/01 06:31:38;;;;;;;6.60;6.00;;;;;;;15.05;100.00;98748.75;105241;1268;74335;-73
2022/06/01 06:34:05;;;;;;;6.70;6.20;;;;;;;15.06;100.00;98748.31;105225;1268;69154;-74
2022/06/01 06:36:32;;;;;;;7.60;6.70;;;;;;;15.08;100.00;98745.40;105201;1268;74421;-75
2022/06/01 06:38:59;;;;;;;7.40;6.60;;;;;;;15.11;100.00;98746.41;105190;1267;61260;-73
2022/06/01 06:41:25;;;;;;;7.20;6.50;;;;;;;15.17;100.00;98747.55;105234;1268;61308;-72
2022/06/01 06:43:52;;;;;;;9.10;6.10;;;;;;;15.23;100.00;98742.50;104971;1268;73310;-74
2022/06/01 06:46:23;;;;;;;6.30;5.80;;;;;;;15.36;100.00;98743.08;105017;1268;69442;-76
2022/06/01 06:48:50;;;;;;;;;;;;;;;15.57;100.00;98738.73;105302;1268;72665;-73
2022/06/01 06:51:18;;;;;;;4.80;4.40;;;;;;;15.77;100.00;98738.27;105219;1268;61349;-74
2022/06/01 06:53:45;;;;;;;5.20;4.70;;;;;;;15.96;100.00;98743.52;105063;1268;62125;-75
2022/06/01 06:56:14;;;;;;;6.40;5.10;;;;;;;16.18;100.00;98740.98;105209;1267;76250;-75
2022/06/01 06:58:41;;;;;;;5.70;5.10;;;;;;;16.46;100.00;98737.24;105216;1268;70782;-74
2022/06/01 07:01:08;;;;;;;5.80;5.20;;;;;;;16.75;100.00;98732.12;105241;1268;72144;-73
2022/06/01 07:03:34;;;;;;;5.20;4.70;;;;;;;17.07;100.00;98731.71;105031;1271;61374;-73
2022/06/01 07:06:12;;;;;;;4.40;3.40;;;;;;;17.43;100.00;98737.51;105250;1268;61256;-74
2022/06/01 07:08:50;;;;;;;4.60;4.00;;;;;;;17.78;100.00;98738.54;105245;1268;76128;-73
2022/06/01 07:11:19;;;;;;;5.10;3.90;;;;;;;18.08;100.00;98740.31;105580;1268;68911;-73
2022/06/01 07:13:50;;;;;;;4.20;3.70;;;;;;;18.31;100.00;98740.52;105269;1268;74426;-72
2022/06/01 07:16:27;;;;;;;4.30;3.70;;;;;;;18.54;100.00;98736.88;105038;1268;61247;-75
2022/06/01 07:18:56;;;;;;;6.90;3.90;;;;;;;18.68;100.00;98739.72;105257;1268;61370;-74
2022/06/01 07:21:22;;;;;;;4.40;4.00;;;;;;;18.80;100.00;98745.52;105235;1268;74235;-73
2022/06/01 07:23:49;;;;;;;5.60;4.60;;;;;;;18.88;100.00;98749.76;105246;1268;70366;-74
2022/06/01 07:26:30;;;;;;;4.80;4.40;;;;;;;18.88;100.00;98752.75;105225;1268;74219;-74
2022/06/01 07:28:57;;;;;;;6.40;5.80;;;;;;;18.86;100.00;98758.31;105243;1268;61246;-72
2022/06/01 07:31:24;;;;;;;6.10;5.50;;;;;;;18.95;100.00;98761.06;105216;1268;61271;-73
2022/06/01 07:33:53;;;;;;;5.70;5.10;;;;;;;19.04;100.00;98766.39;105240;1268;76116;-73
2022/06/01 07:36:20;;;;;;;5.30;4.50;;;;;;;19.19;100.00;98765.86;105231;1271;68506;-73
2022/06/01 07:44:28;;;;;;;3.30;3.00;;;;;;;20.63;100.00;98749.04;105301;1268;61791;-73
2022/06/01 07:46:54;;;;;;;2.60;2.40;;;;;;;21.23;100.00;98747.09;105301;1268;76287;-79
2022/06/01 07:49:21;;;;;;;2.50;2.30;;;;;;;21.62;98.21;98748.25;105249;1268;70033;-76
2022/06/01 07:51:48;;;;;;;2.60;2.10;;;;;;;21.97;95.48;98753.48;105235;1268;73210;-77
2022/06/01 07:54:15;;;;;;;3.60;2.70;;;;;;;22.12;92.57;98753.13;105261;1268;61377;-79
2022/06/01 07:56:42;;;;;;;2.60;2.40;;;;;;;22.13;90.69;98755.57;105500;1268;61269;-81
2022/06/01 07:59:09;;;;;;;2.40;2.20;;;;;;;22.04;89.54;98759.75;105388;1268;61288;-79
2022/06/01 08:01:37;;;;;;;3.60;2.90;;;;;;;21.94;88.09;98764.16;105274;1268;70571;-73
2022/06/01 08:04:06;;;;;;;2.50;2.30;;;;;;;21.79;87.66;98761.22;105325;1268;72814;-72
2022/06/01 08:06:35;;;;;;;3.30;2.30;;;;;;;21.75;87.65;98768.57;105507;1271;61377;-72
2022/06/01 08:09:02;;;;;;;3.70;3.10;;;;;;;21.71;87.48;98768.53;105534;1271;61403;-73
2022/06/01 08:14:15;;;;;;;2.80;2.60;;;;;;;21.44;87.51;98770.39;105253;1268;69408;-76
2022/06/01 08:16:44;;;;;;;3.00;2.80;;;;;;;21.46;88.53;98766.51;105218;1268;74177;-77
2022/06/01 08:19:12;;;;;;;4.30;3.40;;;;;;;21.61;88.88;98768.18;105221;1268;61479;-77
2022/06/01 08:21:39;;;;;;;2.70;2.50;;;;;;;21.81;89.02;98767.55;105272;1268;61703;-79
2022/06/01 08:24:07;;;;;;;3.30;3.00;;;;;;;21.93;88.25;98762.51;105215;1268;61365;-76
2022/06/01 08:26:34;;;;;;;5.80;2.70;;;;;;;22.03;88.09;98770.24;105212;1268;69170;-76
2022/06/01 08:29:02;;;;;;;3.10;2.70;;;;;;;22.13;87.12;98769.64;105236;1268;73794;-76
2022/06/01 08:31:34;;;;;;;2.90;2.70;;;;;;;22.21;86.85;98765.49;105302;1268;61320;-78
2022/06/01 08:34:02;;;;;;;2.50;2.30;;;;;;;22.38;85.25;98760.48;105213;1268;62033;-78
2022/06/01 08:36:29;;;;;;;1.50;1.40;;;;;;;22.40;83.77;98758.04;105134;1268;75307;-76
2022/06/01 08:38:56;;;;;;;3.20;2.80;;;;;;;22.34;83.34;98762.04;105027;1268;67404;-79
2022/06/01 08:41:30;;;;;;;4.90;2.50;;;;;;;22.28;83.18;98762.66;105243;1268;73380;-77
2022/06/01 08:44:01;;;;;;;1.70;1.60;;;;;;;22.23;79.97;98761.27;105048;1268;61390;-77
2022/06/01 08:46:29;;;;;;;1.60;1.50;;;;;;;22.09;78.00;98761.36;105257;1268;61318;-77
2022/06/01 08:49:09;;;;;;;1.40;1.30;;;;;;;21.75;78.20;98760.58;105322;1266;75373;-77
2022/06/01 08:51:36;;;;;;;2.30;1.40;;;;;;;21.64;79.17;98759.55;105844;1268;69222;-77
2022/06/01 08:54:03;;;;;;;2.40;2.10;;;;;;;21.83;79.25;98758.10;106341;1267;73361;-77
2022/06/01 08:56:43;;;;;;;2.00;1.40;;;;;;;22.05;77.66;98761.19;105904;1268;61404;-77
2022/06/01 08:59:35;;;;;;;2.80;1.20;;;;;;;22.19;75.20;98761.37;105217;1268;61291;-78
2022/06/01 09:02:12;;;;;;;1.70;1.60;;;;;;;22.36;75.44;98766.26;105251;1268;75121;-75
2022/06/01 09:05:01;;;;;;;1.70;1.40;;;;;;;22.37;72.88;98763.61;105299;1268;70376;-77
2022/06/01 09:07:33;;;;;;;2.30;1.50;;;;;;;22.12;74.01;98767.03;104998;1268;72627;-77
2022/06/01 09:10:21;;;;;;;1.90;1.70;;;;;;;22.14;74.56;98766.85;105203;1268;61326;-78
2022/06/01 09:13:03;;;;;;;1.90;1.70;;;;;;;22.03;73.97;98769.79;105253;1268;61275;-77
2022/06/01 09:15:40;;;;;;;1.50;1.40;;;;;;;21.97;73.58;98774.73;105269;1268;75165;-78
2022/06/01 09:18:06;;;;;;;1.70;1.60;;;;;;;22.25;73.39;98772.63;105240;1268;69493;-76
2022/06/01 09:23:18;;;;;;;2.60;1.40;;;;;;;22.43;70.98;98781.05;105257;1268;61315;-76
2022/06/01 09:25:54;;;;;;;2.40;1.40;;;;;;;22.68;71.65;98776.88;105222;1268;62011;-76
2022/06/01 09:28:25;;;;;;;3.70;1.60;;;;;;;22.87;71.48;98772.77;105170;1268;72511;-79
2022/06/01 09:31:21;;;;;;;2.00;1.90;;;;;;;23.14;69.82;98781.33;105255;1268;67418;-78
2022/06/01 09:33:47;;;;;;;1.90;1.70;;;;;;;23.33;69.21;98780.98;104784;1277;73361;-76
2022/06/01 09:36:27;;;;;;;2.60;1.90;;;;;;;23.49;69.31;98774.14;104809;1277;61417;-76
2022/06/01 09:38:58;;;;;;;2.90;2.30;;;;;;;23.73;68.63;98776.61;104882;1275;61393;-77
2022/06/01 09:41:38;;;;;;;2.30;1.80;;;;;;;23.95;67.32;98778.88;104863;1277;76059;-77
2022/06/01 09:44:10;;;;;;;;;;;;;;;23.97;65.12;98780.94;104842;1277;70480;-77
2022/06/01 09:46:52;;;;;;;2.30;2.00;;;;;;;24.00;65.72;98781.52;104884;1277;73058;-76
2022/06/01 09:49:22;;;;;;;3.10;2.00;;;;;;;24.21;66.12;98781.64;104602;1276;61560;-77
2022/06/01 09:51:54;;;;;;;1.80;1.70;;;;;;;24.36;64.91;98778.95;104798;1276;61381;-77
2022/06/01 09:54:20;;;;;;;1.90;1.70;;;;;;;24.38;64.44;98780.27;104901;1277;75615;-76
2022/06/01 09:56:48;;;;;;;1.90;1.70;;;;;;;24.25;60.65;98776.21;104808;1276;69642;-76
2022/06/01 10:08:13;;;;;;;2.50;1.80;;;;;;;24.67;62.75;98767.73;104781;1277;76132;-79
2022/06/01 10:10:41;;;;;;;1.60;1.50;;;;;;;24.75;62.38;98768.51;104624;1271;70339;-78
2022/06/01 10:13:07;;;;;;;1.90;1.80;;;;;;;24.70;60.57;98773.17;105275;1271;74115;-77
2022/06/01 10:15:51;;;;;;;1.30;1.20;;;;;;;24.62;59.45;98774.11;105222;1271;61281;-77
2022/06/01 10:18:21;;;;;;;2.20;1.50;;;;;;;24.48;59.08;98781.76;105372;1271;61256;-77
2022/06/01 10:20:56;;;;;;;1.90;1.40;;;;;;;24.14;57.87;98780.68;105277;1271;75752;-75
2022/06/01 10:23:36;;;;;;;1.60;1.50;;;;;;;24.08;57.25;98779.16;105186;1269;70326;-78
2022/06/01 10:26:14;;;;;;;1.50;1.40;;;;;;;24.08;57.28;98780.64;105198;1271;73160;-76
2022/06/01 10:28:50;;;;;;;1.70;1.40;;;;;;;24.26;56.78;98776.70;105226;1271;61394;-79
2022/06/01 10:31:48;;;;;;;2.30;1.50;;;;;;;24.45;57.51;98776.58;105231;1271;61308;-78
2022/06/01 10:34:21;;;;;;;1.40;1.30;;;;;;;24.78;58.05;98775.14;105192;1269;76363;-77
2022/06/01 10:37:01;;;;;;;2.20;1.40;;;;;;;24.99;56.85;98773.73;105209;1270;69470;-77
2022/06/01 10:39:36;;;;;;;1.60;1.40;;;;;;;25.17;56.03;98775.23;104994;1271;72939;-75
2022/06/01 10:43:16;;;;;;;3.10;1.50;;;;;;;25.33;55.77;98773.98;105012;1271;61550;-78
2022/06/01 10:45:15;;;;;;;2.90;1.90;;;;;;;25.46;54.90;98770.47;105201;1271;61281;-78
2022/06/01 10:48:02;;;;;;;2.90;1.30;;;;;;;25.48;53.31;98777.06;105280;1271;75389;-77
2022/06/01 10:50:37;;;;;;;3.80;1.90;;;;;;;25.42;52.35;98780.78;104857;1276;69366;-79
2022/06/01 10:53:16;;;;;;;2.40;1.60;;;;;;;25.54;53.51;98770.23;104856;1277;74386;-78
2022/06/01 10:55:44;;;;;;;3.10;1.80;;;;;;;25.68;52.35;98776.91;104873;1275;61296;-78
2022/06/01 10:58:21;;;;;;;1.60;1.40;;;;;;;25.68;50.10;98777.04;104864;1277;61824;-77
2022/06/01 11:01:09;;;;;;;2.20;1.40;;;;;;;25.19;48.67;98775.46;104810;1276;75135;-76
2022/06/01 11:03:41;;;;;;;3.30;1.10;;;;;;;25.12;50.60;98773.60;104553;1277;69898;-77
2022/06/01 11:06:29;;;;;;;1.10;1.00;;;;;;;25.21;48.43;98778.88;104491;1277;72738;-77
2022/06/01 11:09:05;;;;;;;1.70;1.10;;;;;;;25.21;47.12;98776.61;104510;1277;61326;-78
2022/06/01 11:11:58;;;;;;;1.70;1.20;;;;;;;25.24;47.04;98780.70;104502;1277;61884;-78
2022/06/01 11:14:51;;;;;;;2.00;1.10;;;;;;;25.27;47.43;98776.80;104492;1277;75505;-78
2022/06/01 11:17:29;;;;;;;1.30;1.20;;;;;;;25.40;46.47;98778.71;104488;1280;69226;-77
2022/06/01 11:20:23;;;;;;;1.60;1.40;;;;;;;25.51;46.25;98779.98;104066;1280;70902;-77
2022/06/01 11:23:26;;;;;;;3.10;1.30;;;;;;;25.59;46.67;98776.52;104454;1279;61825;-78
2022/06/01 11:26:07;;;;;;;1.10;0.90;;;;;;;25.65;44.41;98773.17;104418;1280;62348;-78
2022/06/01 11:28:39;;;;;;;1.70;1.30;;;;;;;25.72;45.51;98772.86;104687;1274;75207;-78
2022/06/01 11:31:31;;;;;;;1.50;1.40;;;;;;;25.86;44.65;98771.36;104867;1274;70489;-79
2022/06/01 11:34:19;;;;;;;1.40;1.00;;;;;;;25.89;43.86;98774.70;104325;1281;73453;-78
2022/06/01 11:37:02;;;;;;;1.20;1.10;;;;;;;25.77;42.70;98769.89;104529;1280;61437;-79
2022/06/01 11:39:37;;;;;;;1.40;1.20;;;;;;;25.54;42.59;98769.02;104391;1280;61156;-80
2022/06/01 11:42:37;;;;;;;1.80;1.10;;;;;;;25.47;43.43;98775.77;104506;1280;75987;-76
2022/06/01 11:45:06;;;;;;;1.50;1.30;;;;;;;25.53;42.50;98774.23;104445;1278;68930;-78
2022/06/01 11:47:36;;;;;;;;;;;;;;;25.43;40.92;98777.04;104645;1280;73724;-78
2022/06/01 11:50:05;;;;;;;2.00;1.00;;;;;;;25.19;41.26;98772.02;104908;1277;61336;-78
2022/06/01 11:52:41;;;;;;;2.00;1.10;;;;;;;25.13;41.27;98775.52;104449;1276;61359;-78
2022/06/01 11:55:07;;;;;;;1.70;1.60;;;;;;;25.11;41.64;98777.91;104442;1276;75298;-78
2022/06/01 11:57:49;;;;;;;3.40;1.40;;;;;;;25.19;42.12;98775.84;104802;1277;61297;-78
2022/06/01 12:00:34;;;;;;;2.10;1.30;;;;;;;25.30;42.11;98770.95;104548;1277;72258;-76